sensor_id;sensor_type;location;lat;lon;timestamp;pressure;altitude;pressure_sealevel;temperature;humidity
53960;BME280;39866;48.638;-2.020;2023-03-19T00:02:05;101199.84;;;15.02;66.28
53960;BME280;39866;48.638;-2.020;2023-03-19T00:04:31;101189.47;;;14.93;66.55
53960;BME280;39866;48.638;-2.020;2023-03-19T00:06:57;101187.94;;;15.09;65.94
53960;BME280;39866;48.638;-2.020;2023-03-19T00:09:22;101184.88;;;15.18;65.83
53960;BME280;39866;48.638;-2.020;2023-03-19T00:11:48;101187.56;;;15.18;65.20
53960;BME280;39866;48.638;-2.020;2023-03-19T00:14:14;101187.72;;;15.15;65.72
53960;BME280;39866;48.638;-2.020;2023-03-19T00:16:40;101186.69;;;14.96;66.33
53960;BME280;39866;48.638;-2.020;2023-03-19T00:19:05;101188.06;;;15.06;65.96
53960;BME280;39866;48.638;-2.020;2023-03-19T00:21:31;101195.75;;;15.15;65.69
53960;BME280;39866;48.638;-2.020;2023-03-19T00:23:57;101200.06;;;15.19;65.74
53960;BME280;39866;48.638;-2.020;2023-03-19T00:26:27;101200.81;;;15.23;65.77
53960;BME280;39866;48.638;-2.020;2023-03-19T00:28:54;101205.16;;;15.25;65.82
53960;BME280;39866;48.638;-2.020;2023-03-19T00:31:19;101210.03;;;15.16;65.37
53960;BME280;39866;48.638;-2.020;2023-03-19T00:33:44;101201.78;;;15.20;65.74
53960;BME280;39866;48.638;-2.020;2023-03-19T00:36:10;101220.00;;;15.12;66.19
53960;BME280;39866;48.638;-2.020;2023-03-19T00:38:36;101213.59;;;14.93;66.63
53960;BME280;39866;48.638;-2.020;2023-03-19T00:41:03;101233.22;;;15.17;66.03
53960;BME280;39866;48.638;-2.020;2023-03-19T00:43:30;101232.28;;;14.96;66.66
53960;BME280;39866;48.638;-2.020;2023-03-19T00:45:56;101253.59;;;14.99;66.57
53960;BME280;39866;48.638;-2.020;2023-03-19T00:48:21;101249.63;;;15.09;66.46
53960;BME280;39866;48.638;-2.020;2023-03-19T00:50:47;101249.16;;;14.98;66.73
53960;BME280;39866;48.638;-2.020;2023-03-19T00:53:12;101240.78;;;14.83;67.53
53960;BME280;39866;48.638;-2.020;2023-03-19T00:55:38;101240.53;;;14.90;67.25
53960;BME280;39866;48.638;-2.020;2023-03-19T00:58:04;101251.16;;;14.93;67.45
53960;BME280;39866;48.638;-2.020;2023-03-19T01:00:31;101246.63;;;14.95;67.25
53960;BME280;39866;48.638;-2.020;2023-03-19T01:02:57;101246.63;;;14.71;67.78
53960;BME280;39866;48.638;-2.020;2023-03-19T01:05:22;101249.47;;;14.67;68.34
53960;BME280;39866;48.638;-2.020;2023-03-19T01:07:49;101250.53;;;14.86;68.24
53960;BME280;39866;48.638;-2.020;2023-03-19T01:10:19;101249.16;;;14.98;67.91
53960;BME280;39866;48.638;-2.020;2023-03-19T01:12:46;101251.72;;;14.77;68.38
53960;BME280;39866;48.638;-2.020;2023-03-19T01:15:12;101254.78;;;14.92;68.29
53960;BME280;39866;48.638;-2.020;2023-03-19T01:17:37;101271.44;;;14.76;68.63
53960;BME280;39866;48.638;-2.020;2023-03-19T01:20:04;101261.97;;;14.90;67.97
53960;BME280;39866;48.638;-2.020;2023-03-19T01:22:35;101279.56;;;14.73;68.97
53960;BME280;39866;48.638;-2.020;2023-03-19T01:25:01;101293.34;;;14.88;68.75
53960;BME280;39866;48.638;-2.020;2023-03-19T01:27:27;101293.63;;;14.80;68.43
53960;BME280;39866;48.638;-2.020;2023-03-19T01:29:52;101285.31;;;14.88;68.72
53960;BME280;39866;48.638;-2.020;2023-03-19T01:32:17;101282.13;;;14.78;69.23
53960;BME280;39866;48.638;-2.020;2023-03-19T01:34:43;101285.84;;;14.74;69.40
53960;BME280;39866;48.638;-2.020;2023-03-19T01:37:08;101289.25;;;14.77;69.85
53960;BME280;39866;48.638;-2.020;2023-03-19T01:39:34;101294.25;;;14.63;69.74
53960;BME280;39866;48.638;-2.020;2023-03-19T01:42:00;101285.13;;;14.69;70.24
53960;BME280;39866;48.638;-2.020;2023-03-19T01:44:31;101273.06;;;14.80;69.43
53960;BME280;39866;48.638;-2.020;2023-03-19T01:46:59;101272.25;;;14.78;69.62
53960;BME280;39866;48.638;-2.020;2023-03-19T01:49:26;101280.69;;;14.68;70.07
53960;BME280;39866;48.638;-2.020;2023-03-19T01:51:54;101291.03;;;14.78;69.86
53960;BME280;39866;48.638;-2.020;2023-03-19T01:54:21;101295.50;;;14.78;69.94
53960;BME280;39866;48.638;-2.020;2023-03-19T01:56:52;101306.44;;;14.72;69.82
53960;BME280;39866;48.638;-2.020;2023-03-19T01:59:29;101301.97;;;14.72;70.02
53960;BME280;39866;48.638;-2.020;2023-03-19T02:02:02;101307.72;;;14.85;69.82
53960;BME280;39866;48.638;-2.020;2023-03-19T02:04:30;101307.56;;;14.90;69.43
53960;BME280;39866;48.638;-2.020;2023-03-19T02:06:57;101321.31;;;14.80;69.63
53960;BME280;39866;48.638;-2.020;2023-03-19T02:09:24;101321.97;;;14.87;69.84
53960;BME280;39866;48.638;-2.020;2023-03-19T02:11:50;101314.22;;;14.79;70.09
53960;BME280;39866;48.638;-2.020;2023-03-19T02:14:16;101325.91;;;14.77;69.68
53960;BME280;39866;48.638;-2.020;2023-03-19T02:16:42;101309.66;;;14.81;69.99
53960;BME280;39866;48.638;-2.020;2023-03-19T02:19:12;101313.38;;;14.77;69.35
53960;BME280;39866;48.638;-2.020;2023-03-19T02:21:40;101316.50;;;14.65;69.92
53960;BME280;39866;48.638;-2.020;2023-03-19T02:24:16;101316.63;;;14.62;69.64
53960;BME280;39866;48.638;-2.020;2023-03-19T02:26:45;101307.84;;;14.58;69.53
53960;BME280;39866;48.638;-2.020;2023-03-19T02:29:11;101302.22;;;14.65;69.43
53960;BME280;39866;48.638;-2.020;2023-03-19T02:31:36;101308.09;;;14.51;69.67
53960;BME280;39866;48.638;-2.020;2023-03-19T02:36:41;101327.38;;;14.62;68.85
53960;BME280;39866;48.638;-2.020;2023-03-19T02:39:15;101313.75;;;14.42;69.15
53960;BME280;39866;48.638;-2.020;2023-03-19T02:41:43;101312.31;;;14.58;68.44
53960;BME280;39866;48.638;-2.020;2023-03-19T02:44:10;101313.69;;;14.70;68.26
53960;BME280;39866;48.638;-2.020;2023-03-19T02:46:36;101311.16;;;14.65;67.58
53960;BME280;39866;48.638;-2.020;2023-03-19T02:49:02;101320.41;;;14.56;68.31
53960;BME280;39866;48.638;-2.020;2023-03-19T02:51:28;101322.91;;;14.61;67.85
53960;BME280;39866;48.638;-2.020;2023-03-19T02:53:54;101321.63;;;14.46;68.24
53960;BME280;39866;48.638;-2.020;2023-03-19T02:56:19;101319.75;;;14.48;68.18
53960;BME280;39866;48.638;-2.020;2023-03-19T02:58:44;101321.44;;;14.52;68.29
53960;BME280;39866;48.638;-2.020;2023-03-19T03:01:10;101326.88;;;14.51;68.30
53960;BME280;39866;48.638;-2.020;2023-03-19T03:03:35;101327.00;;;14.46;67.95
53960;BME280;39866;48.638;-2.020;2023-03-19T03:06:01;101337.66;;;14.48;67.78
53960;BME280;39866;48.638;-2.020;2023-03-19T03:08:26;101331.97;;;14.57;67.94
53960;BME280;39866;48.638;-2.020;2023-03-19T03:10:52;101334.03;;;14.50;67.78
53960;BME280;39866;48.638;-2.020;2023-03-19T03:13:17;101329.44;;;14.54;67.67
53960;BME280;39866;48.638;-2.020;2023-03-19T03:15:43;101326.31;;;14.66;67.45
53960;BME280;39866;48.638;-2.020;2023-03-19T03:18:08;101325.28;;;14.70;67.19
53960;BME280;39866;48.638;-2.020;2023-03-19T03:20:34;101326.75;;;14.54;66.88
53960;BME280;39866;48.638;-2.020;2023-03-19T03:22:59;101323.25;;;14.52;67.11
53960;BME280;39866;48.638;-2.020;2023-03-19T03:25:25;101324.25;;;14.48;66.98
53960;BME280;39866;48.638;-2.020;2023-03-19T03:27:50;101327.66;;;14.53;67.17
53960;BME280;39866;48.638;-2.020;2023-03-19T03:30:16;101330.63;;;14.45;66.70
53960;BME280;39866;48.638;-2.020;2023-03-19T03:32:42;101328.50;;;14.55;66.75
53960;BME280;39866;48.638;-2.020;2023-03-19T03:35:08;101336.09;;;14.41;66.98
53960;BME280;39866;48.638;-2.020;2023-03-19T03:37:34;101338.97;;;14.61;66.88
53960;BME280;39866;48.638;-2.020;2023-03-19T03:40:00;101336.44;;;14.58;66.59
53960;BME280;39866;48.638;-2.020;2023-03-19T03:42:30;101344.13;;;14.41;67.65
53960;BME280;39866;48.638;-2.020;2023-03-19T03:44:55;101352.56;;;14.56;67.03
53960;BME280;39866;48.638;-2.020;2023-03-19T03:47:21;101351.03;;;14.48;67.22
53960;BME280;39866;48.638;-2.020;2023-03-19T03:49:46;101355.72;;;14.68;67.10
53960;BME280;39866;48.638;-2.020;2023-03-19T03:52:11;101352.94;;;14.71;66.52
53960;BME280;39866;48.638;-2.020;2023-03-19T03:54:38;101354.31;;;14.82;66.69
53960;BME280;39866;48.638;-2.020;2023-03-19T03:57:04;101358.94;;;14.77;66.52
53960;BME280;39866;48.638;-2.020;2023-03-19T03:59:29;101357.09;;;14.79;66.22
53960;BME280;39866;48.638;-2.020;2023-03-19T04:01:55;101362.03;;;14.67;66.34
53960;BME280;39866;48.638;-2.020;2023-03-19T04:04:20;101371.09;;;14.63;66.14
53960;BME280;39866;48.638;-2.020;2023-03-19T04:06:46;101369.56;;;14.55;66.45
53960;BME280;39866;48.638;-2.020;2023-03-19T04:09:11;101381.50;;;14.72;66.18
53960;BME280;39866;48.638;-2.020;2023-03-19T04:11:39;101380.53;;;14.74;65.98
53960;BME280;39866;48.638;-2.020;2023-03-19T04:14:05;101390.41;;;14.72;65.94
53960;BME280;39866;48.638;-2.020;2023-03-19T04:16:32;101391.19;;;14.76;65.38
53960;BME280;39866;48.638;-2.020;2023-03-19T04:18:57;101401.53;;;14.61;65.10
53960;BME280;39866;48.638;-2.020;2023-03-19T04:21:22;101387.56;;;14.52;65.71
53960;BME280;39866;48.638;-2.020;2023-03-19T04:23:48;101406.38;;;14.50;66.33
53960;BME280;39866;48.638;-2.020;2023-03-19T04:26:13;101411.25;;;14.64;65.97
53960;BME280;39866;48.638;-2.020;2023-03-19T04:28:38;101417.59;;;14.61;66.09
53960;BME280;39866;48.638;-2.020;2023-03-19T04:31:06;101411.28;;;14.36;66.95
53960;BME280;39866;48.638;-2.020;2023-03-19T04:33:32;101427.34;;;14.36;67.14
53960;BME280;39866;48.638;-2.020;2023-03-19T04:35:58;101421.19;;;14.60;66.92
53960;BME280;39866;48.638;-2.020;2023-03-19T04:38:23;101420.94;;;14.42;67.24
53960;BME280;39866;48.638;-2.020;2023-03-19T04:40:53;101416.22;;;14.48;67.45
53960;BME280;39866;48.638;-2.020;2023-03-19T04:43:19;101419.66;;;14.53;66.89
53960;BME280;39866;48.638;-2.020;2023-03-19T04:45:44;101429.38;;;14.29;67.40
53960;BME280;39866;48.638;-2.020;2023-03-19T04:48:10;101433.00;;;14.27;67.72
53960;BME280;39866;48.638;-2.020;2023-03-19T04:50:36;101420.56;;;14.26;68.24
53960;BME280;39866;48.638;-2.020;2023-03-19T04:53:02;101429.47;;;13.98;68.64
53960;BME280;39866;48.638;-2.020;2023-03-19T04:55:27;101430.72;;;13.88;69.09
53960;BME280;39866;48.638;-2.020;2023-03-19T04:57:53;101431.97;;;14.04;68.48
53960;BME280;39866;48.638;-2.020;2023-03-19T05:00:19;101442.69;;;14.31;67.70
53960;BME280;39866;48.638;-2.020;2023-03-19T05:02:44;101447.50;;;14.49;67.05
53960;BME280;39866;48.638;-2.020;2023-03-19T05:05:10;101452.78;;;14.51;66.76
53960;BME280;39866;48.638;-2.020;2023-03-19T05:07:38;101449.28;;;14.49;66.19
53960;BME280;39866;48.638;-2.020;2023-03-19T05:10:04;101442.22;;;14.45;65.93
53960;BME280;39866;48.638;-2.020;2023-03-19T05:12:30;101458.53;;;14.38;65.96
53960;BME280;39866;48.638;-2.020;2023-03-19T05:14:56;101463.25;;;14.58;65.93
53960;BME280;39866;48.638;-2.020;2023-03-19T05:17:21;101459.31;;;14.42;66.70
53960;BME280;39866;48.638;-2.020;2023-03-19T05:19:47;101461.91;;;14.44;66.43
53960;BME280;39866;48.638;-2.020;2023-03-19T05:22:12;101464.06;;;14.60;65.73
53960;BME280;39866;48.638;-2.020;2023-03-19T05:24:38;101462.63;;;14.22;66.84
53960;BME280;39866;48.638;-2.020;2023-03-19T05:27:03;101465.38;;;14.21;66.78
53960;BME280;39866;48.638;-2.020;2023-03-19T05:29:28;101481.59;;;13.86;67.74
53960;BME280;39866;48.638;-2.020;2023-03-19T05:31:54;101487.41;;;13.71;67.82
53960;BME280;39866;48.638;-2.020;2023-03-19T05:34:20;101496.06;;;13.81;67.38
53960;BME280;39866;48.638;-2.020;2023-03-19T05:36:45;101493.44;;;14.07;66.96
53960;BME280;39866;48.638;-2.020;2023-03-19T05:39:11;101486.66;;;13.96;66.50
53960;BME280;39866;48.638;-2.020;2023-03-19T05:41:36;101495.28;;;13.77;66.92
53960;BME280;39866;48.638;-2.020;2023-03-19T05:44:02;101492.00;;;13.68;66.89
53960;BME280;39866;48.638;-2.020;2023-03-19T05:46:28;101489.63;;;13.57;67.41
53960;BME280;39866;48.638;-2.020;2023-03-19T05:48:53;101489.03;;;13.47;67.18
53960;BME280;39866;48.638;-2.020;2023-03-19T05:51:18;101505.09;;;13.46;67.40
53960;BME280;39866;48.638;-2.020;2023-03-19T05:53:44;101508.41;;;13.55;66.93
53960;BME280;39866;48.638;-2.020;2023-03-19T05:56:10;101502.00;;;13.91;66.72
53960;BME280;39866;48.638;-2.020;2023-03-19T05:58:35;101498.59;;;13.85;66.16
53960;BME280;39866;48.638;-2.020;2023-03-19T06:01:01;101516.66;;;13.48;67.32
53960;BME280;39866;48.638;-2.020;2023-03-19T06:03:27;101508.28;;;13.90;66.30
53960;BME280;39866;48.638;-2.020;2023-03-19T06:05:52;101512.28;;;13.75;66.48
53960;BME280;39866;48.638;-2.020;2023-03-19T06:08:18;101521.28;;;13.72;66.94
53960;BME280;39866;48.638;-2.020;2023-03-19T06:10:44;101527.53;;;13.73;66.40
53960;BME280;39866;48.638;-2.020;2023-03-19T06:13:11;101534.31;;;13.84;66.22
53960;BME280;39866;48.638;-2.020;2023-03-19T06:15:36;101542.16;;;13.91;66.02
53960;BME280;39866;48.638;-2.020;2023-03-19T06:18:02;101543.38;;;13.79;66.53
53960;BME280;39866;48.638;-2.020;2023-03-19T06:20:27;101546.72;;;13.87;66.40
53960;BME280;39866;48.638;-2.020;2023-03-19T06:22:53;101537.13;;;13.80;66.21
53960;BME280;39866;48.638;-2.020;2023-03-19T06:25:18;101545.97;;;13.51;66.78
53960;BME280;39866;48.638;-2.020;2023-03-19T06:27:43;101541.28;;;13.59;66.30
53960;BME280;39866;48.638;-2.020;2023-03-19T06:30:09;101546.75;;;13.56;65.87
53960;BME280;39866;48.638;-2.020;2023-03-19T06:32:35;101544.00;;;13.57;65.64
53960;BME280;39866;48.638;-2.020;2023-03-19T06:35:01;101554.66;;;13.59;65.73
53960;BME280;39866;48.638;-2.020;2023-03-19T06:37:27;101555.59;;;13.58;65.91
53960;BME280;39866;48.638;-2.020;2023-03-19T06:39:52;101563.47;;;13.62;66.08
53960;BME280;39866;48.638;-2.020;2023-03-19T06:42:19;101565.22;;;13.32;66.33
53960;BME280;39866;48.638;-2.020;2023-03-19T06:44:46;101569.34;;;13.44;66.30
53960;BME280;39866;48.638;-2.020;2023-03-19T06:47:11;101570.97;;;13.50;66.47
53960;BME280;39866;48.638;-2.020;2023-03-19T06:49:36;101579.81;;;13.53;66.17
53960;BME280;39866;48.638;-2.020;2023-03-19T06:52:02;101583.28;;;13.57;65.98
53960;BME280;39866;48.638;-2.020;2023-03-19T06:54:27;101590.50;;;13.53;66.15
53960;BME280;39866;48.638;-2.020;2023-03-19T06:56:53;101585.09;;;13.55;66.02
53960;BME280;39866;48.638;-2.020;2023-03-19T06:59:18;101577.72;;;13.63;65.56
53960;BME280;39866;48.638;-2.020;2023-03-19T07:01:44;101580.81;;;13.49;65.47
53960;BME280;39866;48.638;-2.020;2023-03-19T07:04:10;101598.06;;;13.37;65.59
53960;BME280;39866;48.638;-2.020;2023-03-19T07:06:36;101577.03;;;13.56;64.82
53960;BME280;39866;48.638;-2.020;2023-03-19T07:09:02;101593.69;;;13.35;65.04
53960;BME280;39866;48.638;-2.020;2023-03-19T07:11:28;101594.06;;;13.18;66.44
53960;BME280;39866;48.638;-2.020;2023-03-19T07:13:53;101605.63;;;13.20;66.46
53960;BME280;39866;48.638;-2.020;2023-03-19T07:16:19;101615.72;;;13.45;65.95
53960;BME280;39866;48.638;-2.020;2023-03-19T07:18:45;101607.16;;;13.30;66.41
53960;BME280;39866;48.638;-2.020;2023-03-19T07:21:10;101613.50;;;13.26;65.61
53960;BME280;39866;48.638;-2.020;2023-03-19T07:23:35;101611.91;;;13.19;65.76
53960;BME280;39866;48.638;-2.020;2023-03-19T07:26:01;101613.38;;;12.95;66.51
53960;BME280;39866;48.638;-2.020;2023-03-19T07:28:26;101623.41;;;13.21;66.29
53960;BME280;39866;48.638;-2.020;2023-03-19T07:30:52;101626.09;;;13.23;65.54
53960;BME280;39866;48.638;-2.020;2023-03-19T07:33:18;101608.91;;;12.96;65.28
53960;BME280;39866;48.638;-2.020;2023-03-19T07:35:45;101615.09;;;12.98;65.80
53960;BME280;39866;48.638;-2.020;2023-03-19T07:38:10;101610.97;;;13.20;65.09
53960;BME280;39866;48.638;-2.020;2023-03-19T07:40:36;101622.44;;;13.25;65.56
53960;BME280;39866;48.638;-2.020;2023-03-19T07:43:02;101630.81;;;13.10;65.66
53960;BME280;39866;48.638;-2.020;2023-03-19T07:45:27;101639.63;;;13.15;64.84
53960;BME280;39866;48.638;-2.020;2023-03-19T07:47:53;101635.75;;;13.28;64.57
53960;BME280;39866;48.638;-2.020;2023-03-19T07:50:18;101624.09;;;12.94;64.83
53960;BME280;39866;48.638;-2.020;2023-03-19T07:52:45;101639.38;;;12.88;65.16
53960;BME280;39866;48.638;-2.020;2023-03-19T07:55:11;101633.41;;;13.14;64.61
53960;BME280;39866;48.638;-2.020;2023-03-19T07:57:37;101634.19;;;12.82;64.47
53960;BME280;39866;48.638;-2.020;2023-03-19T08:00:03;101642.03;;;12.90;64.79
53960;BME280;39866;48.638;-2.020;2023-03-19T08:02:29;101639.63;;;13.15;63.71
53960;BME280;39866;48.638;-2.020;2023-03-19T08:04:54;101633.41;;;13.14;63.59
53960;BME280;39866;48.638;-2.020;2023-03-19T08:07:20;101648.56;;;12.77;64.21
53960;BME280;39866;48.638;-2.020;2023-03-19T08:09:46;101644.88;;;12.82;64.82
53960;BME280;39866;48.638;-2.020;2023-03-19T08:12:12;101658.72;;;13.00;64.81
53960;BME280;39866;48.638;-2.020;2023-03-19T08:14:37;101663.31;;;13.30;63.67
53960;BME280;39866;48.638;-2.020;2023-03-19T08:17:03;101670.47;;;13.30;62.95
53960;BME280;39866;48.638;-2.020;2023-03-19T08:19:28;101678.06;;;13.47;62.66
53960;BME280;39866;48.638;-2.020;2023-03-19T08:21:53;101684.34;;;13.46;62.29
53960;BME280;39866;48.638;-2.020;2023-03-19T08:24:19;101673.81;;;13.40;62.56
53960;BME280;39866;48.638;-2.020;2023-03-19T08:26:44;101678.97;;;13.46;62.27
53960;BME280;39866;48.638;-2.020;2023-03-19T08:29:10;101672.94;;;13.37;62.68
53960;BME280;39866;48.638;-2.020;2023-03-19T08:31:35;101684.88;;;13.60;62.61
53960;BME280;39866;48.638;-2.020;2023-03-19T08:34:01;101681.16;;;13.66;62.18
53960;BME280;39866;48.638;-2.020;2023-03-19T08:36:30;101686.78;;;13.87;61.72
53960;BME280;39866;48.638;-2.020;2023-03-19T08:38:56;101697.59;;;13.84;61.64
53960;BME280;39866;48.638;-2.020;2023-03-19T08:41:23;101700.22;;;13.86;61.50
53960;BME280;39866;48.638;-2.020;2023-03-19T08:43:48;101697.25;;;13.97;61.76
53960;BME280;39866;48.638;-2.020;2023-03-19T08:46:14;101704.38;;;13.98;61.08
53960;BME280;39866;48.638;-2.020;2023-03-19T08:48:40;101710.69;;;13.95;59.87
53960;BME280;39866;48.638;-2.020;2023-03-19T08:51:05;101702.28;;;13.76;59.47
53960;BME280;39866;48.638;-2.020;2023-03-19T08:53:31;101716.81;;;13.66;58.34
53960;BME280;39866;48.638;-2.020;2023-03-19T08:55:59;101711.81;;;13.52;57.91
53960;BME280;39866;48.638;-2.020;2023-03-19T08:58:26;101717.34;;;13.79;57.72
53960;BME280;39866;48.638;-2.020;2023-03-19T09:00:52;101716.69;;;13.71;58.13
53960;BME280;39866;48.638;-2.020;2023-03-19T09:03:19;101722.22;;;13.63;57.55
53960;BME280;39866;48.638;-2.020;2023-03-19T09:05:46;101742.13;;;13.53;58.88
53960;BME280;39866;48.638;-2.020;2023-03-19T09:08:11;101727.94;;;13.49;57.89
53960;BME280;39866;48.638;-2.020;2023-03-19T09:10:37;101721.78;;;13.46;57.69
53960;BME280;39866;48.638;-2.020;2023-03-19T09:13:03;101726.31;;;13.42;57.27
53960;BME280;39866;48.638;-2.020;2023-03-19T09:15:28;101746.44;;;13.58;56.48
53960;BME280;39866;48.638;-2.020;2023-03-19T09:17:54;101728.94;;;13.79;55.63
53960;BME280;39866;48.638;-2.020;2023-03-19T09:20:19;101739.41;;;13.54;55.39
53960;BME280;39866;48.638;-2.020;2023-03-19T09:22:45;101748.66;;;13.41;56.60
53960;BME280;39866;48.638;-2.020;2023-03-19T09:25:10;101737.94;;;13.41;57.04
53960;BME280;39866;48.638;-2.020;2023-03-19T09:27:36;101752.38;;;13.34;57.20
53960;BME280;39866;48.638;-2.020;2023-03-19T09:30:01;101754.66;;;13.12;56.79
53960;BME280;39866;48.638;-2.020;2023-03-19T09:32:27;101742.47;;;13.39;55.64
53960;BME280;39866;48.638;-2.020;2023-03-19T09:34:52;101744.22;;;13.40;55.46
53960;BME280;39866;48.638;-2.020;2023-03-19T09:37:18;101736.94;;;13.08;55.23
53960;BME280;39866;48.638;-2.020;2023-03-19T09:39:43;101758.88;;;13.24;55.96
53960;BME280;39866;48.638;-2.020;2023-03-19T09:44:42;101765.56;;;13.43;55.02
53960;BME280;39866;48.638;-2.020;2023-03-19T09:47:35;101769.41;;;13.31;54.68
53960;BME280;39866;48.638;-2.020;2023-03-19T09:50:23;101760.78;;;13.56;55.35
53960;BME280;39866;48.638;-2.020;2023-03-19T09:53:07;101770.69;;;13.51;54.33
53960;BME280;39866;48.638;-2.020;2023-03-19T09:55:45;101776.97;;;13.50;54.42
53960;BME280;39866;48.638;-2.020;2023-03-19T09:58:25;101782.56;;;13.76;54.15
53960;BME280;39866;48.638;-2.020;2023-03-19T10:00:53;101783.81;;;13.97;54.49
53960;BME280;39866;48.638;-2.020;2023-03-19T10:03:45;101791.53;;;14.08;53.61
53960;BME280;39866;48.638;-2.020;2023-03-19T10:06:36;101795.09;;;13.74;53.09
53960;BME280;39866;48.638;-2.020;2023-03-19T10:09:22;101799.38;;;13.81;53.86
53960;BME280;39866;48.638;-2.020;2023-03-19T10:12:28;101801.44;;;14.06;52.76
53960;BME280;39866;48.638;-2.020;2023-03-19T10:18:16;101805.63;;;14.16;53.29
53960;BME280;39866;48.638;-2.020;2023-03-19T10:21:04;101797.06;;;14.02;52.47
53960;BME280;39866;48.638;-2.020;2023-03-19T10:23:57;101794.44;;;14.00;53.15
53960;BME280;39866;48.638;-2.020;2023-03-19T10:26:29;101802.56;;;13.96;53.71
53960;BME280;39866;48.638;-2.020;2023-03-19T10:29:18;101801.25;;;14.13;54.01
53960;BME280;39866;48.638;-2.020;2023-03-19T10:36:48;101814.94;;;13.66;55.34
53960;BME280;39866;48.638;-2.020;2023-03-19T10:39:17;101819.44;;;14.01;54.65
53960;BME280;39866;48.638;-2.020;2023-03-19T10:41:52;101813.94;;;14.05;53.05
53960;BME280;39866;48.638;-2.020;2023-03-19T10:44:28;101826.59;;;14.00;54.08
53960;BME280;39866;48.638;-2.020;2023-03-19T10:47:11;101828.72;;;14.20;53.21
53960;BME280;39866;48.638;-2.020;2023-03-19T10:49:37;101822.00;;;14.04;53.07
53960;BME280;39866;48.638;-2.020;2023-03-19T10:52:04;101830.81;;;14.09;52.83
53960;BME280;39866;48.638;-2.020;2023-03-19T10:54:29;101818.13;;;14.16;52.55
53960;BME280;39866;48.638;-2.020;2023-03-19T10:56:58;101816.09;;;14.25;51.99
53960;BME280;39866;48.638;-2.020;2023-03-19T10:59:31;101814.09;;;14.33;52.26
53960;BME280;39866;48.638;-2.020;2023-03-19T11:02:00;101813.03;;;14.06;51.80
53960;BME280;39866;48.638;-2.020;2023-03-19T11:04:26;101810.78;;;13.90;51.54
53960;BME280;39866;48.638;-2.020;2023-03-19T11:06:55;101824.13;;;13.91;51.09
53960;BME280;39866;48.638;-2.020;2023-03-19T11:09:33;101839.31;;;13.91;50.98
53960;BME280;39866;48.638;-2.020;2023-03-19T11:14:43;101845.81;;;13.80;50.82
53960;BME280;39866;48.638;-2.020;2023-03-19T11:17:34;101847.53;;;13.83;50.92
53960;BME280;39866;48.638;-2.020;2023-03-19T11:20:18;101850.09;;;13.87;49.30
53960;BME280;39866;48.638;-2.020;2023-03-19T11:22:44;101856.47;;;14.18;50.65
53960;BME280;39866;48.638;-2.020;2023-03-19T11:27:39;101843.75;;;14.26;50.52
53960;BME280;39866;48.638;-2.020;2023-03-19T11:30:17;101848.63;;;14.10;49.83
53960;BME280;39866;48.638;-2.020;2023-03-19T11:32:56;101850.28;;;14.16;50.60
53960;BME280;39866;48.638;-2.020;2023-03-19T11:35:36;101856.78;;;14.05;50.80
53960;BME280;39866;48.638;-2.020;2023-03-19T11:38:02;101846.22;;;14.01;50.74
53960;BME280;39866;48.638;-2.020;2023-03-19T11:40:42;101852.81;;;14.22;51.33
53960;BME280;39866;48.638;-2.020;2023-03-19T11:44:51;101854.00;;;14.10;49.85
53960;BME280;39866;48.638;-2.020;2023-03-19T11:46:43;101857.44;;;14.15;49.99
53960;BME280;39866;48.638;-2.020;2023-03-19T11:49:38;101852.50;;;13.98;51.26
53960;BME280;39866;48.638;-2.020;2023-03-19T11:52:17;101854.22;;;14.35;51.13
53960;BME280;39866;48.638;-2.020;2023-03-19T12:08:06;101861.84;;;14.16;51.00
53960;BME280;39866;48.638;-2.020;2023-03-19T12:10:39;101857.50;;;14.12;50.78
53960;BME280;39866;48.638;-2.020;2023-03-19T12:15:41;101860.16;;;14.13;50.66
53960;BME280;39866;48.638;-2.020;2023-03-19T12:26:07;101875.59;;;14.36;50.74
53960;BME280;39866;48.638;-2.020;2023-03-19T12:31:27;101864.59;;;14.15;50.97
53960;BME280;39866;48.638;-2.020;2023-03-19T12:34:10;101854.00;;;14.10;51.16
53960;BME280;39866;48.638;-2.020;2023-03-19T12:36:49;101852.63;;;13.94;51.43
53960;BME280;39866;48.638;-2.020;2023-03-19T12:39:23;101862.41;;;13.95;52.03
53960;BME280;39866;48.638;-2.020;2023-03-19T12:41:50;101866.03;;;14.28;52.33
53960;BME280;39866;48.638;-2.020;2023-03-19T12:44:28;101865.91;;;14.32;52.53
53960;BME280;39866;48.638;-2.020;2023-03-19T12:47:48;101851.34;;;14.43;51.58
53960;BME280;39866;48.638;-2.020;2023-03-19T12:50:08;101850.41;;;14.44;51.43
53960;BME280;39866;48.638;-2.020;2023-03-19T12:52:40;101857.50;;;14.46;52.47
53960;BME280;39866;48.638;-2.020;2023-03-19T12:55:19;101861.13;;;14.44;52.86
53960;BME280;39866;48.638;-2.020;2023-03-19T12:58:26;101854.59;;;13.85;52.55
53960;BME280;39866;48.638;-2.020;2023-03-19T13:01:05;101855.13;;;14.00;52.54
53960;BME280;39866;48.638;-2.020;2023-03-19T13:04:02;101859.09;;;14.19;52.62
53960;BME280;39866;48.638;-2.020;2023-03-19T13:06:38;101856.78;;;14.05;53.02
53960;BME280;39866;48.638;-2.020;2023-03-19T13:19:57;101846.53;;;14.23;53.41
53960;BME280;39866;48.638;-2.020;2023-03-19T13:22:26;101850.69;;;14.34;52.92
53960;BME280;39866;48.638;-2.020;2023-03-19T13:24:53;101851.34;;;14.43;52.90
53960;BME280;39866;48.638;-2.020;2023-03-19T13:27:21;101853.03;;;14.47;53.38
53960;BME280;39866;48.638;-2.020;2023-03-19T13:30:16;101850.91;;;14.59;52.76
53960;BME280;39866;48.638;-2.020;2023-03-19T13:32:47;101857.41;;;14.51;52.80
53960;BME280;39866;48.638;-2.020;2023-03-19T13:35:44;101852.84;;;14.85;52.44
53960;BME280;39866;48.638;-2.020;2023-03-19T13:45:52;101848.84;;;15.00;51.73
53960;BME280;39866;48.638;-2.020;2023-03-19T13:48:23;101850.97;;;14.58;51.79
53960;BME280;39866;48.638;-2.020;2023-03-19T13:50:54;101852.28;;;15.05;51.10
53960;BME280;39866;48.638;-2.020;2023-03-19T13:53:35;101857.41;;;15.13;50.39